createdAt,value
2023-02-09T06:51:55.532Z,3.30
2023-02-09T06:54:23.901Z,3.80
2023-02-09T06:56:52.352Z,3.50
2023-02-09T06:59:22.148Z,3.50
2023-02-09T07:01:54.412Z,3.60
2023-02-09T07:04:23.623Z,3.60
2023-02-09T07:06:51.886Z,3.60
2023-02-09T07:09:20.109Z,3.60
2023-02-09T07:11:48.524Z,3.60
2023-02-09T07:14:16.744Z,3.60
2023-02-09T07:16:46.354Z,3.70
2023-02-09T07:19:14.917Z,3.80
2023-02-09T07:21:43.152Z,3.80
2023-02-09T07:24:11.361Z,3.90
2023-02-09T07:26:39.786Z,3.90
2023-02-09T07:29:08.064Z,3.90
2023-02-09T07:31:36.464Z,3.90
2023-02-09T07:34:06.332Z,3.90
2023-02-09T07:36:34.603Z,4.00
2023-02-09T07:39:02.953Z,4.10
2023-02-09T07:41:31.630Z,4.10
2023-02-09T07:43:59.844Z,4.10
2023-02-09T07:46:28.334Z,4.20
2023-02-09T07:48:59.473Z,4.30
2023-02-09T07:51:32.860Z,4.30
2023-02-09T07:54:19.338Z,4.50
2023-02-09T07:56:47.546Z,4.50
2023-02-09T07:59:15.844Z,4.50
2023-02-09T08:01:44.415Z,4.50
2023-02-09T08:04:12.765Z,4.50
2023-02-09T08:06:45.331Z,4.60
2023-02-09T08:09:16.568Z,4.60
2023-02-09T08:11:49.923Z,4.60
2023-02-09T08:14:21.695Z,4.60
2023-02-09T08:16:52.241Z,4.60
2023-02-09T08:19:24.336Z,4.60
2023-02-09T08:21:54.194Z,4.60
2023-02-09T08:24:22.748Z,4.60
2023-02-09T08:26:51.017Z,4.70
2023-02-09T08:29:19.565Z,4.60
2023-02-09T08:31:47.817Z,4.70
2023-02-09T08:34:16.297Z,4.60
2023-02-09T08:36:44.594Z,4.60
2023-02-09T08:39:14.295Z,4.70
2023-02-09T08:41:44.085Z,4.70
2023-02-09T08:44:13.562Z,4.70
2023-02-09T08:46:41.930Z,4.70
2023-02-09T08:49:10.326Z,4.70
2023-02-09T08:51:38.738Z,4.70
2023-02-09T08:54:07.249Z,4.70
2023-02-09T08:56:36.920Z,4.70
2023-02-09T08:59:05.607Z,4.60
2023-02-09T09:01:34.579Z,4.70
2023-02-09T09:04:02.979Z,4.60
2023-02-09T09:06:31.295Z,4.60
2023-02-09T09:08:59.585Z,4.50
2023-02-09T09:11:28.201Z,4.50
2023-02-09T09:13:59.139Z,4.50
2023-02-09T09:16:27.409Z,4.50
2023-02-09T09:18:55.821Z,4.50
2023-02-09T09:21:24.128Z,4.40
2023-02-09T09:23:52.388Z,4.40
2023-02-09T09:26:20.682Z,4.40
2023-02-09T09:28:51.478Z,4.40
2023-02-09T09:31:21.660Z,4.40
2023-02-09T09:33:50.043Z,4.40
2023-02-09T09:36:19.460Z,4.40
2023-02-09T09:38:47.916Z,4.40
2023-02-09T09:41:23.466Z,4.50
2023-02-09T09:43:53.350Z,4.60
2023-02-09T09:46:27.830Z,4.70
2023-02-09T09:48:58.271Z,4.70
2023-02-09T09:51:36.447Z,4.80
2023-02-09T09:54:08.712Z,4.90
2023-02-09T09:56:36.933Z,5.00
2023-02-09T09:59:05.317Z,5.00
2023-02-09T10:01:35.108Z,5.00
2023-02-09T10:04:10.656Z,5.10
2023-02-09T10:06:42.864Z,5.10
2023-02-09T10:09:23.541Z,5.20
2023-02-09T10:11:57.250Z,5.40
2023-02-09T10:14:25.540Z,5.30
2023-02-09T10:16:55.565Z,5.20
2023-02-09T10:19:27.642Z,5.40
2023-02-09T10:21:56.473Z,5.30
2023-02-09T10:24:27.058Z,5.50
2023-02-09T10:27:13.515Z,5.50
2023-02-09T10:29:42.207Z,5.50
2023-02-09T10:32:19.073Z,5.50
2023-02-09T10:34:50.669Z,5.90
2023-02-09T10:37:23.693Z,5.70
2023-02-09T10:40:01.832Z,5.90
2023-02-09T10:42:32.737Z,5.80
2023-02-09T10:45:12.876Z,5.90
2023-02-09T10:47:42.980Z,5.90
2023-02-09T10:50:19.712Z,6.00
2023-02-09T10:53:02.083Z,6.00
2023-02-09T10:55:36.560Z,6.10
2023-02-09T10:58:07.545Z,6.10
2023-02-09T11:00:42.716Z,6.20
2023-02-09T11:03:19.491Z,6.20
2023-02-09T11:05:48.791Z,6.30
2023-02-09T11:08:23.028Z,6.20
2023-02-09T11:11:01.979Z,6.10
2023-02-09T11:13:32.418Z,5.90
2023-02-09T11:16:47.961Z,5.80
2023-02-09T11:19:41.137Z,5.80
2023-02-09T11:22:13.937Z,5.70
2023-02-09T11:24:55.877Z,5.50
2023-02-09T11:27:46.707Z,4.60
2023-02-09T11:30:29.749Z,4.70
2023-02-09T11:33:04.056Z,4.70
